sensor_id;sensor_type;location;lat;lon;timestamp;pressure;altitude;pressure_sealevel;temperature;humidity
77019;BME280;66044;53.142;17.962;2023-02-26T00:00:59;100049.83;;;0.66;70.60
77019;BME280;66044;53.142;17.962;2023-02-26T00:03:35;100054.22;;;0.70;70.38
77019;BME280;66044;53.142;17.962;2023-02-26T00:06:01;100059.95;;;0.74;70.37
77019;BME280;66044;53.142;17.962;2023-02-26T00:08:28;100066.02;;;0.79;70.46
77019;BME280;66044;53.142;17.962;2023-02-26T00:10:57;100067.98;;;0.83;70.18
77019;BME280;66044;53.142;17.962;2023-02-26T00:13:24;100073.36;;;0.86;70.41
77019;BME280;66044;53.142;17.962;2023-02-26T00:15:55;100075.52;;;0.88;70.08
77019;BME280;66044;53.142;17.962;2023-02-26T00:18:24;100078.42;;;0.89;69.99
77019;BME280;66044;53.142;17.962;2023-02-26T00:20:51;100080.60;;;0.89;69.88
77019;BME280;66044;53.142;17.962;2023-02-26T00:23:18;100082.33;;;0.89;69.74
77019;BME280;66044;53.142;17.962;2023-02-26T00:25:45;100093.17;;;0.90;70.06
77019;BME280;66044;53.142;17.962;2023-02-26T00:28:12;100091.23;;;0.89;70.00
77019;BME280;66044;53.142;17.962;2023-02-26T00:30:39;100102.70;;;0.88;70.08
77019;BME280;66044;53.142;17.962;2023-02-26T00:33:06;100102.11;;;0.86;69.95
77019;BME280;66044;53.142;17.962;2023-02-26T00:35:33;100100.54;;;0.84;70.01
77019;BME280;66044;53.142;17.962;2023-02-26T00:43:12;100106.66;;;0.76;69.81
77019;BME280;66044;53.142;17.962;2023-02-26T00:45:44;100112.30;;;0.73;69.86
77019;BME280;66044;53.142;17.962;2023-02-26T00:54:27;100128.21;;;0.65;69.42
77019;BME280;66044;53.142;17.962;2023-02-26T00:56:57;100127.70;;;0.60;69.51
77019;BME280;66044;53.142;17.962;2023-02-26T00:59:24;100133.48;;;0.54;69.39
77019;BME280;66044;53.142;17.962;2023-02-26T01:01:51;100138.69;;;0.49;69.53
77019;BME280;66044;53.142;17.962;2023-02-26T01:04:21;100136.88;;;0.45;69.50
77019;BME280;66044;53.142;17.962;2023-02-26T01:06:51;100138.25;;;0.43;69.54
77019;BME280;66044;53.142;17.962;2023-02-26T01:09:35;100138.48;;;0.44;69.68
77019;BME280;66044;53.142;17.962;2023-02-26T01:12:07;100139.73;;;0.46;69.93
77019;BME280;66044;53.142;17.962;2023-02-26T01:14:34;100145.95;;;0.47;69.56
77019;BME280;66044;53.142;17.962;2023-02-26T01:17:07;100149.48;;;0.47;69.87
77019;BME280;66044;53.142;17.962;2023-02-26T01:22:39;100154.77;;;0.47;69.72
77019;BME280;66044;53.142;17.962;2023-02-26T01:25:15;100159.05;;;0.48;69.46
77019;BME280;66044;53.142;17.962;2023-02-26T01:27:43;100161.11;;;0.46;69.73
77019;BME280;66044;53.142;17.962;2023-02-26T01:30:10;100164.45;;;0.45;69.80
77019;BME280;66044;53.142;17.962;2023-02-26T01:32:43;100171.09;;;0.47;69.92
77019;BME280;66044;53.142;17.962;2023-02-26T01:43:23;100189.84;;;0.52;69.67
77019;BME280;66044;53.142;17.962;2023-02-26T01:46:29;100192.25;;;0.53;69.65
77019;BME280;66044;53.142;17.962;2023-02-26T01:48:59;100199.11;;;0.53;69.43
77019;BME280;66044;53.142;17.962;2023-02-26T01:51:55;100201.13;;;0.54;69.62
77019;BME280;66044;53.142;17.962;2023-02-26T01:54:24;100200.28;;;0.53;69.81
77019;BME280;66044;53.142;17.962;2023-02-26T01:57:14;100198.27;;;0.53;69.43
77019;BME280;66044;53.142;17.962;2023-02-26T01:59:48;100203.71;;;0.53;69.56
77019;BME280;66044;53.142;17.962;2023-02-26T02:02:18;100205.73;;;0.53;69.72
77019;BME280;66044;53.142;17.962;2023-02-26T02:04:46;100206.91;;;0.52;69.43
77019;BME280;66044;53.142;17.962;2023-02-26T02:07:14;100201.95;;;0.51;69.49
77019;BME280;66044;53.142;17.962;2023-02-26T02:09:41;100205.45;;;0.47;69.55
77019;BME280;66044;53.142;17.962;2023-02-26T02:15:12;100220.82;;;0.31;69.55
77019;BME280;66044;53.142;17.962;2023-02-26T02:20:46;100230.58;;;0.15;69.84
77019;BME280;66044;53.142;17.962;2023-02-26T02:23:46;100235.06;;;0.08;69.99
77019;BME280;66044;53.142;17.962;2023-02-26T02:26:34;100245.05;;;0.03;69.88
77019;BME280;66044;53.142;17.962;2023-02-26T02:29:26;100252.50;;;0.01;69.76
77019;BME280;66044;53.142;17.962;2023-02-26T02:31:59;100255.15;;;-0.00;70.21
77019;BME280;66044;53.142;17.962;2023-02-26T02:34:45;100258.42;;;0.00;70.34
77019;BME280;66044;53.142;17.962;2023-02-26T02:40:04;100263.80;;;0.07;70.20
77019;BME280;66044;53.142;17.962;2023-02-26T02:42:43;100267.75;;;0.09;70.40
77019;BME280;66044;53.142;17.962;2023-02-26T02:48:32;100274.56;;;0.15;70.03
77019;BME280;66044;53.142;17.962;2023-02-26T02:51:11;100281.00;;;0.17;70.13
77019;BME280;66044;53.142;17.962;2023-02-26T02:53:45;100286.28;;;0.20;69.93
77019;BME280;66044;53.142;17.962;2023-02-26T02:56:23;100287.11;;;0.23;70.20
77019;BME280;66044;53.142;17.962;2023-02-26T02:58:59;100285.84;;;0.25;69.83
77019;BME280;66044;53.142;17.962;2023-02-26T03:01:31;100287.27;;;0.25;69.83
77019;BME280;66044;53.142;17.962;2023-02-26T03:04:07;100290.27;;;0.25;69.85
77019;BME280;66044;53.142;17.962;2023-02-26T03:06:34;100294.71;;;0.24;70.41
77019;BME280;66044;53.142;17.962;2023-02-26T03:09:01;100303.13;;;0.22;69.94
77019;BME280;66044;53.142;17.962;2023-02-26T03:11:31;100308.58;;;0.21;70.19
77019;BME280;66044;53.142;17.962;2023-02-26T03:13:58;100312.21;;;0.22;70.33
77019;BME280;66044;53.142;17.962;2023-02-26T03:19:21;100318.06;;;0.23;69.97
77019;BME280;66044;53.142;17.962;2023-02-26T03:24:32;100324.14;;;0.23;70.44
77019;BME280;66044;53.142;17.962;2023-02-26T03:29:53;100335.98;;;0.22;70.16
77019;BME280;66044;53.142;17.962;2023-02-26T03:35:14;100341.33;;;0.21;70.30
77019;BME280;66044;53.142;17.962;2023-02-26T03:37:50;100340.05;;;0.19;70.21
77019;BME280;66044;53.142;17.962;2023-02-26T03:40:21;100349.70;;;0.15;70.07
77019;BME280;66044;53.142;17.962;2023-02-26T03:42:54;100354.98;;;0.11;70.56
77019;BME280;66044;53.142;17.962;2023-02-26T03:45:31;100357.36;;;0.08;70.22
77019;BME280;66044;53.142;17.962;2023-02-26T03:47:59;100357.68;;;0.08;70.37
77019;BME280;66044;53.142;17.962;2023-02-26T03:50:38;100361.11;;;0.09;70.54
77019;BME280;66044;53.142;17.962;2023-02-26T03:53:09;100363.81;;;0.12;70.63
77019;BME280;66044;53.142;17.962;2023-02-26T03:55:46;100367.63;;;0.13;70.42
77019;BME280;66044;53.142;17.962;2023-02-26T03:58:14;100372.53;;;0.13;70.19
77019;BME280;66044;53.142;17.962;2023-02-26T04:00:43;100373.70;;;0.14;70.30
77019;BME280;66044;53.142;17.962;2023-02-26T04:03:32;100382.45;;;0.15;70.31
77019;BME280;66044;53.142;17.962;2023-02-26T04:06:02;100386.41;;;0.16;70.42
77019;BME280;66044;53.142;17.962;2023-02-26T04:08:30;100385.93;;;0.17;70.40
77019;BME280;66044;53.142;17.962;2023-02-26T04:10:58;100388.11;;;0.19;70.22
77019;BME280;66044;53.142;17.962;2023-02-26T04:13:26;100393.55;;;0.20;70.22
77019;BME280;66044;53.142;17.962;2023-02-26T04:15:53;100392.65;;;0.20;70.16
77019;BME280;66044;53.142;17.962;2023-02-26T04:18:20;100398.45;;;0.19;70.25
77019;BME280;66044;53.142;17.962;2023-02-26T04:20:46;100396.34;;;0.16;70.14
77019;BME280;66044;53.142;17.962;2023-02-26T04:23:12;100407.27;;;0.14;70.43
77019;BME280;66044;53.142;17.962;2023-02-26T04:25:39;100414.14;;;0.13;70.11
77019;BME280;66044;53.142;17.962;2023-02-26T04:28:05;100421.52;;;0.12;70.59
77019;BME280;66044;53.142;17.962;2023-02-26T04:30:32;100426.08;;;0.12;70.54
77019;BME280;66044;53.142;17.962;2023-02-26T04:32:59;100424.61;;;0.14;70.56
77019;BME280;66044;53.142;17.962;2023-02-26T04:35:25;100426.34;;;0.17;70.34
77019;BME280;66044;53.142;17.962;2023-02-26T04:37:51;100433.21;;;0.21;70.62
77019;BME280;66044;53.142;17.962;2023-02-26T04:40:18;100436.06;;;0.23;70.63
77019;BME280;66044;53.142;17.962;2023-02-26T04:42:44;100440.98;;;0.25;70.50
77019;BME280;66044;53.142;17.962;2023-02-26T04:45:11;100445.84;;;0.27;70.53
77019;BME280;66044;53.142;17.962;2023-02-26T04:47:37;100448.55;;;0.28;70.34
77019;BME280;66044;53.142;17.962;2023-02-26T04:50:04;100455.52;;;0.31;70.58
77019;BME280;66044;53.142;17.962;2023-02-26T04:52:31;100456.15;;;0.33;70.16
77019;BME280;66044;53.142;17.962;2023-02-26T04:54:57;100458.70;;;0.36;70.68
77019;BME280;66044;53.142;17.962;2023-02-26T04:57:24;100465.98;;;0.40;70.69
77019;BME280;66044;53.142;17.962;2023-02-26T04:59:50;100466.79;;;0.42;70.68
77019;BME280;66044;53.142;17.962;2023-02-26T05:02:17;100472.28;;;0.43;70.35
77019;BME280;66044;53.142;17.962;2023-02-26T05:04:44;100473.08;;;0.43;70.72
77019;BME280;66044;53.142;17.962;2023-02-26T05:07:10;100468.22;;;0.44;70.77
77019;BME280;66044;53.142;17.962;2023-02-26T05:09:37;100468.54;;;0.44;70.58
77019;BME280;66044;53.142;17.962;2023-02-26T05:12:03;100474.98;;;0.44;70.58
77019;BME280;66044;53.142;17.962;2023-02-26T05:14:30;100482.59;;;0.44;70.74
77019;BME280;66044;53.142;17.962;2023-02-26T05:16:56;100485.49;;;0.43;70.66
77019;BME280;66044;53.142;17.962;2023-02-26T05:19:23;100486.38;;;0.42;70.60
77019;BME280;66044;53.142;17.962;2023-02-26T05:21:49;100489.23;;;0.41;70.68
77019;BME280;66044;53.142;17.962;2023-02-26T05:24:16;100490.49;;;0.41;70.51
77019;BME280;66044;53.142;17.962;2023-02-26T05:26:42;100500.06;;;0.41;70.61
77019;BME280;66044;53.142;17.962;2023-02-26T05:29:09;100503.75;;;0.38;70.38
77019;BME280;66044;53.142;17.962;2023-02-26T05:31:35;100503.61;;;0.36;70.30
77019;BME280;66044;53.142;17.962;2023-02-26T05:34:02;100510.98;;;0.34;70.83
77019;BME280;66044;53.142;17.962;2023-02-26T05:36:28;100512.89;;;0.32;70.36
77019;BME280;66044;53.142;17.962;2023-02-26T05:39:01;100520.06;;;0.31;70.57
77019;BME280;66044;53.142;17.962;2023-02-26T05:41:27;100525.55;;;0.31;70.85
77019;BME280;66044;53.142;17.962;2023-02-26T05:43:53;100526.94;;;0.32;70.62
77019;BME280;66044;53.142;17.962;2023-02-26T05:46:20;100531.17;;;0.34;70.95
77019;BME280;66044;53.142;17.962;2023-02-26T05:48:46;100543.39;;;0.37;70.72
77019;BME280;66044;53.142;17.962;2023-02-26T05:51:13;100546.55;;;0.39;70.50
77019;BME280;66044;53.142;17.962;2023-02-26T05:53:39;100552.48;;;0.42;70.90
77019;BME280;66044;53.142;17.962;2023-02-26T05:56:06;100558.94;;;0.46;70.62
77019;BME280;66044;53.142;17.962;2023-02-26T05:58:32;100562.70;;;0.50;71.20
77019;BME280;66044;53.142;17.962;2023-02-26T06:01:01;100567.14;;;0.53;70.92
77019;BME280;66044;53.142;17.962;2023-02-26T06:03:27;100575.30;;;0.58;70.80
77019;BME280;66044;53.142;17.962;2023-02-26T06:05:54;100582.74;;;0.63;70.76
77019;BME280;66044;53.142;17.962;2023-02-26T06:08:20;100586.36;;;0.68;70.82
77019;BME280;66044;53.142;17.962;2023-02-26T06:10:49;100588.52;;;0.71;70.85
77019;BME280;66044;53.142;17.962;2023-02-26T06:13:15;100587.68;;;0.72;70.76
77019;BME280;66044;53.142;17.962;2023-02-26T06:15:42;100595.20;;;0.74;70.72
77019;BME280;66044;53.142;17.962;2023-02-26T06:18:09;100598.96;;;0.81;70.88
77019;BME280;66044;53.142;17.962;2023-02-26T06:20:35;100607.69;;;0.90;70.58
77019;BME280;66044;53.142;17.962;2023-02-26T06:23:02;100607.97;;;0.98;70.57
77019;BME280;66044;53.142;17.962;2023-02-26T06:25:28;100614.58;;;1.09;70.54
77019;BME280;66044;53.142;17.962;2023-02-26T06:27:55;100619.51;;;1.22;70.28
77019;BME280;66044;53.142;17.962;2023-02-26T06:30:21;100625.27;;;1.37;70.15
77019;BME280;66044;53.142;17.962;2023-02-26T06:32:49;100635.95;;;1.49;70.01
77019;BME280;66044;53.142;17.962;2023-02-26T06:35:15;100637.16;;;1.58;69.84
77019;BME280;66044;53.142;17.962;2023-02-26T06:37:41;100641.77;;;1.60;69.94
77019;BME280;66044;53.142;17.962;2023-02-26T06:40:08;100648.51;;;1.55;69.75
77019;BME280;66044;53.142;17.962;2023-02-26T06:42:36;100650.68;;;1.50;69.78
77019;BME280;66044;53.142;17.962;2023-02-26T06:45:02;100651.64;;;1.47;69.87
77019;BME280;66044;53.142;17.962;2023-02-26T06:47:29;100652.42;;;1.44;69.85
77019;BME280;66044;53.142;17.962;2023-02-26T06:49:56;100655.44;;;1.40;69.83
77019;BME280;66044;53.142;17.962;2023-02-26T06:52:22;100662.33;;;1.36;69.83
77019;BME280;66044;53.142;17.962;2023-02-26T06:54:48;100664.71;;;1.33;70.06
77019;BME280;66044;53.142;17.962;2023-02-26T06:57:15;100668.25;;;1.31;70.08
77019;BME280;66044;53.142;17.962;2023-02-26T06:59:41;100672.32;;;1.32;70.17
77019;BME280;66044;53.142;17.962;2023-02-26T07:02:15;100678.99;;;1.34;70.22
77019;BME280;66044;53.142;17.962;2023-02-26T07:04:46;100679.89;;;1.37;70.32
77019;BME280;66044;53.142;17.962;2023-02-26T07:07:12;100687.04;;;1.43;70.38
77019;BME280;66044;53.142;17.962;2023-02-26T07:09:39;100688.84;;;1.48;70.50
77019;BME280;66044;53.142;17.962;2023-02-26T07:12:06;100695.98;;;1.53;70.55
77019;BME280;66044;53.142;17.962;2023-02-26T07:14:33;100694.52;;;1.60;70.73
77019;BME280;66044;53.142;17.962;2023-02-26T07:17:00;100696.46;;;1.65;70.60
77019;BME280;66044;53.142;17.962;2023-02-26T07:19:27;100701.33;;;1.66;70.84
77019;BME280;66044;53.142;17.962;2023-02-26T07:21:54;100711.91;;;1.66;70.71
77019;BME280;66044;53.142;17.962;2023-02-26T07:24:21;100714.15;;;1.63;70.71
77019;BME280;66044;53.142;17.962;2023-02-26T07:26:48;100717.64;;;1.62;70.87
77019;BME280;66044;53.142;17.962;2023-02-26T07:29:14;100720.87;;;1.68;70.80
77019;BME280;66044;53.142;17.962;2023-02-26T07:31:41;100724.72;;;1.87;70.54
77019;BME280;66044;53.142;17.962;2023-02-26T07:34:07;100732.32;;;2.14;70.28
77019;BME280;66044;53.142;17.962;2023-02-26T07:36:34;100743.85;;;2.19;70.35
77019;BME280;66044;53.142;17.962;2023-02-26T07:39:00;100745.14;;;2.18;70.23
77019;BME280;66044;53.142;17.962;2023-02-26T07:41:27;100751.59;;;2.21;70.09
77019;BME280;66044;53.142;17.962;2023-02-26T07:43:53;100751.55;;;2.23;70.06
77019;BME280;66044;53.142;17.962;2023-02-26T07:46:20;100757.11;;;2.23;69.87
77019;BME280;66044;53.142;17.962;2023-02-26T07:48:46;100762.52;;;2.26;69.75
77019;BME280;66044;53.142;17.962;2023-02-26T07:51:12;100765.25;;;2.31;69.69
77019;BME280;66044;53.142;17.962;2023-02-26T07:53:39;100773.61;;;2.36;69.64
77019;BME280;66044;53.142;17.962;2023-02-26T07:56:05;100774.73;;;2.32;69.33
77019;BME280;66044;53.142;17.962;2023-02-26T07:58:32;100776.50;;;2.24;69.21
77019;BME280;66044;53.142;17.962;2023-02-26T08:00:58;100778.83;;;2.27;69.02
77019;BME280;66044;53.142;17.962;2023-02-26T08:03:25;100779.27;;;2.43;68.74
77019;BME280;66044;53.142;17.962;2023-02-26T08:05:51;100782.85;;;2.88;68.02
77019;BME280;66044;53.142;17.962;2023-02-26T08:08:18;100792.85;;;3.57;67.26
77019;BME280;66044;53.142;17.962;2023-02-26T08:10:44;100794.23;;;3.46;67.25
77019;BME280;66044;53.142;17.962;2023-02-26T08:13:10;100795.05;;;3.46;66.90
77019;BME280;66044;53.142;17.962;2023-02-26T08:15:37;100803.02;;;4.34;66.14
77019;BME280;66044;53.142;17.962;2023-02-26T08:18:04;100806.74;;;6.94;63.20
77019;BME280;66044;53.142;17.962;2023-02-26T08:20:30;100820.85;;;9.44;60.44
77019;BME280;66044;53.142;17.962;2023-02-26T08:22:57;100824.19;;;11.56;58.77
77019;BME280;66044;53.142;17.962;2023-02-26T08:25:23;100834.95;;;12.95;56.76
77019;BME280;66044;53.142;17.962;2023-02-26T08:27:50;100842.10;;;13.73;54.34
77019;BME280;66044;53.142;17.962;2023-02-26T08:30:16;100845.48;;;14.73;52.91
77019;BME280;66044;53.142;17.962;2023-02-26T08:32:43;100852.48;;;14.84;51.44
77019;BME280;66044;53.142;17.962;2023-02-26T08:35:11;100847.47;;;13.69;50.77
77019;BME280;66044;53.142;17.962;2023-02-26T08:37:37;100850.20;;;12.58;49.91
77019;BME280;66044;53.142;17.962;2023-02-26T08:40:05;100848.06;;;11.57;49.39
77019;BME280;66044;53.142;17.962;2023-02-26T08:42:33;100855.19;;;10.78;49.69
77019;BME280;66044;53.142;17.962;2023-02-26T08:44:59;100854.40;;;10.19;50.24
77019;BME280;66044;53.142;17.962;2023-02-26T08:47:26;100856.91;;;9.59;50.21
77019;BME280;66044;53.142;17.962;2023-02-26T08:49:53;100854.90;;;9.00;50.14
77019;BME280;66044;53.142;17.962;2023-02-26T08:52:20;100859.64;;;8.57;50.63
77019;BME280;66044;53.142;17.962;2023-02-26T08:54:46;100865.83;;;8.12;51.11
77019;BME280;66044;53.142;17.962;2023-02-26T08:57:13;100865.92;;;7.73;50.53
77019;BME280;66044;53.142;17.962;2023-02-26T08:59:39;100867.39;;;7.24;50.62
77019;BME280;66044;53.142;17.962;2023-02-26T09:02:06;100879.54;;;6.88;51.48
77019;BME280;66044;53.142;17.962;2023-02-26T09:04:34;100886.23;;;6.63;51.99
77019;BME280;66044;53.142;17.962;2023-02-26T09:07:01;100892.10;;;6.41;51.86
77019;BME280;66044;53.142;17.962;2023-02-26T09:09:27;100892.68;;;6.21;51.78
77019;BME280;66044;53.142;17.962;2023-02-26T09:11:53;100899.05;;;5.99;51.87
77019;BME280;66044;53.142;17.962;2023-02-26T09:14:20;100903.98;;;5.84;52.07
77019;BME280;66044;53.142;17.962;2023-02-26T09:16:46;100912.95;;;5.74;52.16
77019;BME280;66044;53.142;17.962;2023-02-26T09:19:13;100917.31;;;5.59;52.53
77019;BME280;66044;53.142;17.962;2023-02-26T09:21:39;100921.34;;;5.52;52.65
77019;BME280;66044;53.142;17.962;2023-02-26T09:24:06;100927.29;;;5.45;52.59
77019;BME280;66044;53.142;17.962;2023-02-26T09:26:33;100932.96;;;5.42;52.76
77019;BME280;66044;53.142;17.962;2023-02-26T09:28:59;100930.52;;;5.33;52.94
77019;BME280;66044;53.142;17.962;2023-02-26T09:31:25;100936.91;;;5.23;52.90
77019;BME280;66044;53.142;17.962;2023-02-26T09:33:53;100938.52;;;5.13;53.18
77019;BME280;66044;53.142;17.962;2023-02-26T09:36:19;100943.69;;;5.12;53.20
77019;BME280;66044;53.142;17.962;2023-02-26T09:38:46;100944.19;;;5.05;53.33
77019;BME280;66044;53.142;17.962;2023-02-26T09:41:43;100944.18;;;4.94;53.16
77019;BME280;66044;53.142;17.962;2023-02-26T09:44:16;100949.80;;;4.86;53.11
77019;BME280;66044;53.142;17.962;2023-02-26T09:46:59;100959.92;;;4.86;52.84
77019;BME280;66044;53.142;17.962;2023-02-26T09:50:02;100960.56;;;4.92;52.97
77019;BME280;66044;53.142;17.962;2023-02-26T09:55:33;100971.51;;;4.98;52.70
77019;BME280;66044;53.142;17.962;2023-02-26T09:58:02;100979.39;;;4.93;52.52
77019;BME280;66044;53.142;17.962;2023-02-26T10:00:40;100983.01;;;4.98;52.73
77019;BME280;66044;53.142;17.962;2023-02-26T10:06:25;100995.73;;;5.26;52.20
77019;BME280;66044;53.142;17.962;2023-02-26T10:11:45;101001.40;;;5.51;52.17
77019;BME280;66044;53.142;17.962;2023-02-26T10:14:38;101004.70;;;5.60;51.89
77019;BME280;66044;53.142;17.962;2023-02-26T10:17:16;101010.62;;;5.59;51.84
77019;BME280;66044;53.142;17.962;2023-02-26T10:19:47;101017.60;;;5.55;51.55
77019;BME280;66044;53.142;17.962;2023-02-26T10:22:27;101026.86;;;5.41;51.27
77019;BME280;66044;53.142;17.962;2023-02-26T10:25:05;101031.08;;;5.18;50.91
77019;BME280;66044;53.142;17.962;2023-02-26T10:30:27;101035.86;;;4.87;50.88
77019;BME280;66044;53.142;17.962;2023-02-26T10:33:06;101040.58;;;4.84;50.89
77019;BME280;66044;53.142;17.962;2023-02-26T10:35:49;101040.49;;;4.79;50.50
77019;BME280;66044;53.142;17.962;2023-02-26T10:38:23;101040.53;;;4.82;50.63
77019;BME280;66044;53.142;17.962;2023-02-26T10:41:13;101044.88;;;4.98;50.77
77019;BME280;66044;53.142;17.962;2023-02-26T10:43:43;101051.13;;;5.08;50.65
77019;BME280;66044;53.142;17.962;2023-02-26T10:46:33;101047.94;;;5.06;50.49
77019;BME280;66044;53.142;17.962;2023-02-26T10:49:43;101053.19;;;5.04;50.07
77019;BME280;66044;53.142;17.962;2023-02-26T10:52:17;101057.36;;;5.10;50.43
77019;BME280;66044;53.142;17.962;2023-02-26T10:57:34;101064.27;;;4.91;49.71
77019;BME280;66044;53.142;17.962;2023-02-26T11:00:03;101067.23;;;4.76;49.68
77019;BME280;66044;53.142;17.962;2023-02-26T11:02:37;101063.52;;;4.57;49.70
77019;BME280;66044;53.142;17.962;2023-02-26T11:05:06;101067.66;;;4.43;50.25
77019;BME280;66044;53.142;17.962;2023-02-26T11:07:35;101069.66;;;4.36;50.39
77019;BME280;66044;53.142;17.962;2023-02-26T11:10:03;101078.73;;;4.32;50.33
77019;BME280;66044;53.142;17.962;2023-02-26T11:12:31;101083.56;;;4.34;50.16
77019;BME280;66044;53.142;17.962;2023-02-26T11:14:59;101086.98;;;4.39;50.18
77019;BME280;66044;53.142;17.962;2023-02-26T11:17:28;101088.02;;;4.43;49.75
77019;BME280;66044;53.142;17.962;2023-02-26T11:20:02;101086.67;;;4.45;49.71
77019;BME280;66044;53.142;17.962;2023-02-26T11:22:33;101090.29;;;4.45;49.89
77019;BME280;66044;53.142;17.962;2023-02-26T11:25:02;101090.23;;;4.48;49.90
77019;BME280;66044;53.142;17.962;2023-02-26T11:27:33;101097.95;;;4.49;49.99
77019;BME280;66044;53.142;17.962;2023-02-26T11:30:26;101100.62;;;4.48;50.01
77019;BME280;66044;53.142;17.962;2023-02-26T11:32:52;101105.05;;;4.43;49.65
77019;BME280;66044;53.142;17.962;2023-02-26T11:35:24;101106.02;;;4.50;49.79
77019;BME280;66044;53.142;17.962;2023-02-26T11:38:00;101103.50;;;4.55;49.77
77019;BME280;66044;53.142;17.962;2023-02-26T11:40:35;101103.64;;;4.59;49.56
77019;BME280;66044;53.142;17.962;2023-02-26T11:43:06;101105.70;;;4.58;49.14
77019;BME280;66044;53.142;17.962;2023-02-26T11:45:36;101112.09;;;4.50;48.47
77019;BME280;66044;53.142;17.962;2023-02-26T11:48:12;101119.68;;;4.41;47.90
77019;BME280;66044;53.142;17.962;2023-02-26T11:50:45;101121.28;;;4.29;48.04
77019;BME280;66044;53.142;17.962;2023-02-26T11:53:24;101128.85;;;4.22;47.72
77019;BME280;66044;53.142;17.962;2023-02-26T11:55:52;101130.95;;;4.18;47.98
77019;BME280;66044;53.142;17.962;2023-02-26T11:58:24;101141.42;;;4.17;47.54
77019;BME280;66044;53.142;17.962;2023-02-26T12:00:51;101148.06;;;4.20;47.86
77019;BME280;66044;53.142;17.962;2023-02-26T12:03:25;101151.48;;;4.23;47.56
77019;BME280;66044;53.142;17.962;2023-02-26T12:05:54;101156.02;;;4.25;47.59
77019;BME280;66044;53.142;17.962;2023-02-26T12:08:29;101161.71;;;4.23;47.30
77019;BME280;66044;53.142;17.962;2023-02-26T12:11:08;101158.89;;;4.23;47.32
77019;BME280;66044;53.142;17.962;2023-02-26T12:19:35;101163.92;;;4.34;47.85
77019;BME280;66044;53.142;17.962;2023-02-26T12:25:01;101171.23;;;4.40;46.93
77019;BME280;66044;53.142;17.962;2023-02-26T12:39:08;101183.69;;;4.60;50.64
77019;BME280;66044;53.142;17.962;2023-02-26T12:41:51;101184.19;;;4.59;51.29
77019;BME280;66044;53.142;17.962;2023-02-26T12:44:38;101184.38;;;4.61;51.53
77019;BME280;66044;53.142;17.962;2023-02-26T12:52:57;101189.49;;;4.61;52.57
77019;BME280;66044;53.142;17.962;2023-02-26T12:55:39;101192.02;;;4.56;52.44
77019;BME280;66044;53.142;17.962;2023-02-26T13:01:03;101198.97;;;4.48;52.96
77019;BME280;66044;53.142;17.962;2023-02-26T13:03:57;101206.31;;;4.44;53.03
77019;BME280;66044;53.142;17.962;2023-02-26T13:06:31;101206.63;;;4.45;53.38
77019;BME280;66044;53.142;17.962;2023-02-26T13:09:10;101207.43;;;4.45;53.21
77019;BME280;66044;53.142;17.962;2023-02-26T13:18:47;101219.84;;;4.38;53.56
77019;BME280;66044;53.142;17.962;2023-02-26T13:21:12;101226.87;;;4.37;53.61
77019;BME280;66044;53.142;17.962;2023-02-26T13:23:50;101234.54;;;4.33;53.76
77019;BME280;66044;53.142;17.962;2023-02-26T13:26:17;101239.70;;;4.31;53.64
77019;BME280;66044;53.142;17.962;2023-02-26T13:28:55;101240.47;;;4.27;53.58
77019;BME280;66044;53.142;17.962;2023-02-26T13:31:39;101242.86;;;4.23;53.37
77019;BME280;66044;53.142;17.962;2023-02-26T13:34:18;101242.87;;;4.17;53.43
77019;BME280;66044;53.142;17.962;2023-02-26T13:36:47;101247.44;;;4.17;53.64
77019;BME280;66044;53.142;17.962;2023-02-26T13:39:20;101251.27;;;4.17;53.53
77019;BME280;66044;53.142;17.962;2023-02-26T13:47:36;101258.34;;;4.08;53.44
77019;BME280;66044;53.142;17.962;2023-02-26T13:53:02;101262.13;;;4.08;53.23
77019;BME280;66044;53.142;17.962;2023-02-26T13:55:37;101268.61;;;4.07;52.95
77019;BME280;66044;53.142;17.962;2023-02-26T14:01:33;101268.98;;;3.93;52.67
77019;BME280;66044;53.142;17.962;2023-02-26T14:06:46;101275.43;;;3.82;52.71
77019;BME280;66044;53.142;17.962;2023-02-26T14:14:43;101281.10;;;3.67;52.26
77019;BME280;66044;53.142;17.962;2023-02-26T14:19:40;101281.05;;;3.59;52.68
77019;BME280;66044;53.142;17.962;2023-02-26T14:24:54;101291.16;;;3.49;52.70
77019;BME280;66044;53.142;17.962;2023-02-26T14:27:31;101288.82;;;3.44;52.95
77019;BME280;66044;53.142;17.962;2023-02-26T14:30:05;101292.05;;;3.39;52.91
77019;BME280;66044;53.142;17.962;2023-02-26T14:35:28;101295.48;;;3.30;52.64
77019;BME280;66044;53.142;17.962;2023-02-26T14:38:02;101303.39;;;3.28;52.87
77019;BME280;66044;53.142;17.962;2023-02-26T14:40:35;101298.73;;;3.25;52.66
77019;BME280;66044;53.142;17.962;2023-02-26T14:43:04;101304.01;;;3.22;52.42
77019;BME280;66044;53.142;17.962;2023-02-26T14:45:38;101305.11;;;3.20;52.81
77019;BME280;66044;53.142;17.962;2023-02-26T14:48:11;101307.02;;;3.21;52.75
77019;BME280;66044;53.142;17.962;2023-02-26T14:50:49;101308.73;;;3.20;52.79
77019;BME280;66044;53.142;17.962;2023-02-26T14:56:13;101315.81;;;3.14;52.16
77019;BME280;66044;53.142;17.962;2023-02-26T15:02:01;101309.95;;;3.10;51.92
77019;BME280;66044;53.142;17.962;2023-02-26T15:10:24;101331.86;;;3.05;52.02
77019;BME280;66044;53.142;17.962;2023-02-26T15:13:35;101336.34;;;3.01;51.93
77019;BME280;66044;53.142;17.962;2023-02-26T15:19:06;101343.73;;;2.89;51.48
77019;BME280;66044;53.142;17.962;2023-02-26T15:24:23;101352.29;;;2.84;51.51
77019;BME280;66044;53.142;17.962;2023-02-26T15:26:54;101357.73;;;2.82;51.29
77019;BME280;66044;53.142;17.962;2023-02-26T15:29:27;101363.61;;;2.81;51.39
77019;BME280;66044;53.142;17.962;2023-02-26T15:31:57;101360.63;;;2.76;51.15